Irini — SYZA — position and weather

sailwx.info

Track history (hours):
 
Tides and Currents Weather Stations Pressure Air Temp Water Temp Dewpoint Dewpoint Depression Visibility Wind Speed Wind Dir Waves Ship Positions

Irini

Last reported at 2014-Jul-31 01:33 UTC. Time now 2014-Jul-31 03:22 UTC.
Position N 38°13' E 024°36'.

Length 137 m; draft 5.8 m.

Type: Tanker. MMSI: 240052000.

Date/timePositionNaut miles runAvg speedWind from/ knotsBaromVisibWave heightAir tempDewpointWater temp
2014-Jul-31 01:33N 38°13' E 024°36'8211.5
2014-Jul-30 18:25N 39°17' E 023°30'1311.8
2014-Jul-30 17:18N 39°29' E 023°23'  
2014-Jul-27 19:23N 37°57' E 024°36'1011.9
2014-Jul-27 18:33N 37°50' E 024°27'1511.7
2014-Jul-27 17:17N 37°40' E 024°13'810.8
2014-Jul-27 16:31N 37°36' E 024°03'1111.6
2014-Jul-27 15:34N 37°38' E 023°49'1110.8
2014-Jul-27 14:33N 37°46' E 023°39'1110.7
2014-Jul-27 13:33N 37°56' E 023°36'7 6.6
2014-Jul-27 12:33N 38°02' E 023°31'0 0.0
2014-Jul-27 11:28N 38°02' E 023°31'1 0.7
2014-Jul-27 10:29N 38°02' E 023°31'0 0.0
2014-Jul-27 09:29N 38°02' E 023°31'0 0.0
2014-Jul-27 08:29N 38°02' E 023°31'0 0.0
2014-Jul-27 07:32N 38°02' E 023°31'0 0.0
2014-Jul-27 06:23N 38°02' E 023°31'0 0.0
2014-Jul-27 05:23N 38°02' E 023°31'0 0.0
2014-Jul-27 04:29N 38°02' E 023°31'0 0.0
2014-Jul-27 03:29N 38°02' E 023°31'0 0.0
2014-Jul-27 02:32N 38°02' E 023°31'0 0.0
2014-Jul-27 01:29N 38°02' E 023°31'0 0.0
2014-Jul-27 00:29N 38°02' E 023°31'0 0.0
2014-Jul-26 23:29N 38°02' E 023°31'0 0.0
2014-Jul-26 22:29N 38°02' E 023°31'0 0.0
2014-Jul-26 21:29N 38°02' E 023°31'0 0.0
2014-Jul-26 20:29N 38°02' E 023°31'0 0.0
2014-Jul-26 19:29N 38°02' E 023°31'0 0.0
2014-Jul-26 18:32N 38°02' E 023°31'0 0.0
2014-Jul-26 17:29N 38°02' E 023°31'0 0.0
2014-Jul-26 16:32N 38°02' E 023°31'0 0.0
2014-Jul-26 15:32N 38°02' E 023°31'0 0.0
2014-Jul-26 14:32N 38°02' E 023°31'0 0.0
2014-Jul-26 13:29N 38°02' E 023°31'0 0.0
2014-Jul-26 12:32N 38°02' E 023°31'0 0.0
2014-Jul-26 11:29N 38°02' E 023°31'0 0.0
2014-Jul-26 10:32N 38°02' E 023°31'0 0.0
2014-Jul-26 09:32N 38°02' E 023°31'0 0.0
2014-Jul-26 08:29N 38°02' E 023°31'0 0.0
2014-Jul-26 07:29N 38°02' E 023°31'3 2.8
2014-Jul-26 06:33N 38°00' E 023°33'6 6.2
2014-Jul-26 05:33N 37°55' E 023°37'9 8.9
2014-Jul-26 04:33N 37°47' E 023°42'1110.8
2014-Jul-26 03:33N 37°39' E 023°51'  
2014-Jul-23 13:24N 37°51' E 024°29'2711.6
2014-Jul-23 11:04N 37°36' E 024°00'1710.8
2014-Jul-23 09:32N 37°43' E 023°41'1111.4
2014-Jul-23 08:33N 37°54' E 023°37'8 8.3
2014-Jul-23 07:33N 38°01' E 023°32'0 0.3
2014-Jul-23 06:19N 38°01' E 023°32'0 0.0
2014-Jul-23 00:19N 38°01' E 023°32'0 0.0
2014-Jul-22 23:34N 38°01' E 023°32'0 0.0
2014-Jul-22 22:34N 38°01' E 023°32'0 0.0
2014-Jul-22 21:34N 38°01' E 023°32'0 0.2
2014-Jul-22 20:31N 38°01' E 023°31'1 0.8
2014-Jul-22 19:31N 38°02' E 023°31'0 0.0
2014-Jul-22 18:31N 38°02' E 023°31'0 0.0
2014-Jul-22 17:31N 38°02' E 023°31'0 0.0
2014-Jul-22 16:19N 38°02' E 023°31'0 0.0
2014-Jul-22 15:28N 38°02' E 023°31'0 0.0
2014-Jul-22 14:31N 38°02' E 023°31'0 0.0
2014-Jul-22 13:31N 38°02' E 023°31'0 0.0
2014-Jul-22 12:28N 38°02' E 023°31'0 0.0
2014-Jul-22 11:31N 38°02' E 023°31'0 0.0
2014-Jul-22 10:28N 38°02' E 023°31'4 0.2
2014-Jul-21 14:06N 38°02' E 023°36'1 1.2
2014-Jul-21 13:33N 38°01' E 023°35'3 2.4
2014-Jul-21 12:30N 38°01' E 023°32'0 0.0
2014-Jul-21 11:33N 38°01' E 023°32'0 0.1
2014-Jul-21 10:24N 38°01' E 023°32'0 0.0
2014-Jul-21 07:33N 38°01' E 023°32'0 0.1
2014-Jul-21 06:21N 38°01' E 023°32'  
Track history (hours):
 
Tides and Currents Weather Stations Pressure Air Temp Water Temp Dewpoint Dewpoint Depression Visibility Wind Speed Wind Dir Waves Ship Positions

Irini

Last reported at 2014-Jul-31 01:33 UTC. Time now 2014-Jul-31 03:22 UTC.
Position N 38°13' E 024°36'.

Length 137 m; draft 5.8 m.

Type: Tanker. MMSI: 240052000.

Date/timePositionNaut miles runAvg speedWind from/ knotsBaromVisibWave heightAir tempDewpointWater temp
2014-Jul-31 01:33N 38°13' E 024°36'8211.5
2014-Jul-30 18:25N 39°17' E 023°30'1311.8
2014-Jul-30 17:18N 39°29' E 023°23'  
2014-Jul-27 19:23N 37°57' E 024°36'1011.9
2014-Jul-27 18:33N 37°50' E 024°27'1511.7
2014-Jul-27 17:17N 37°40' E 024°13'810.8
2014-Jul-27 16:31N 37°36' E 024°03'1111.6
2014-Jul-27 15:34N 37°38' E 023°49'1110.8
2014-Jul-27 14:33N 37°46' E 023°39'1110.7
2014-Jul-27 13:33N 37°56' E 023°36'7 6.6
2014-Jul-27 12:33N 38°02' E 023°31'0 0.0
2014-Jul-27 11:28N 38°02' E 023°31'1 0.7
2014-Jul-27 10:29N 38°02' E 023°31'0 0.0
2014-Jul-27 09:29N 38°02' E 023°31'0 0.0
2014-Jul-27 08:29N 38°02' E 023°31'0 0.0
2014-Jul-27 07:32N 38°02' E 023°31'0 0.0
2014-Jul-27 06:23N 38°02' E 023°31'0 0.0
2014-Jul-27 05:23N 38°02' E 023°31'0 0.0
2014-Jul-27 04:29N 38°02' E 023°31'0 0.0
2014-Jul-27 03:29N 38°02' E 023°31'0 0.0
2014-Jul-27 02:32N 38°02' E 023°31'0 0.0
2014-Jul-27 01:29N 38°02' E 023°31'0 0.0
2014-Jul-27 00:29N 38°02' E 023°31'0 0.0
2014-Jul-26 23:29N 38°02' E 023°31'0 0.0
2014-Jul-26 22:29N 38°02' E 023°31'0 0.0
2014-Jul-26 21:29N 38°02' E 023°31'0 0.0
2014-Jul-26 20:29N 38°02' E 023°31'0 0.0
2014-Jul-26 19:29N 38°02' E 023°31'0 0.0
2014-Jul-26 18:32N 38°02' E 023°31'0 0.0
2014-Jul-26 17:29N 38°02' E 023°31'0 0.0
2014-Jul-26 16:32N 38°02' E 023°31'0 0.0
2014-Jul-26 15:32N 38°02' E 023°31'0 0.0
2014-Jul-26 14:32N 38°02' E 023°31'0 0.0
2014-Jul-26 13:29N 38°02' E 023°31'0 0.0
2014-Jul-26 12:32N 38°02' E 023°31'0 0.0
2014-Jul-26 11:29N 38°02' E 023°31'0 0.0
2014-Jul-26 10:32N 38°02' E 023°31'0 0.0
2014-Jul-26 09:32N 38°02' E 023°31'0 0.0
2014-Jul-26 08:29N 38°02' E 023°31'0 0.0
2014-Jul-26 07:29N 38°02' E 023°31'3 2.8
2014-Jul-26 06:33N 38°00' E 023°33'6 6.2
2014-Jul-26 05:33N 37°55' E 023°37'9 8.9
2014-Jul-26 04:33N 37°47' E 023°42'1110.8
2014-Jul-26 03:33N 37°39' E 023°51'  
2014-Jul-23 13:24N 37°51' E 024°29'2711.6
2014-Jul-23 11:04N 37°36' E 024°00'1710.8
2014-Jul-23 09:32N 37°43' E 023°41'1111.4
2014-Jul-23 08:33N 37°54' E 023°37'8 8.3
2014-Jul-23 07:33N 38°01' E 023°32'0 0.3
2014-Jul-23 06:19N 38°01' E 023°32'0 0.0
2014-Jul-23 00:19N 38°01' E 023°32'0 0.0
2014-Jul-22 23:34N 38°01' E 023°32'0 0.0
2014-Jul-22 22:34N 38°01' E 023°32'0 0.0
2014-Jul-22 21:34N 38°01' E 023°32'0 0.2
2014-Jul-22 20:31N 38°01' E 023°31'1 0.8
2014-Jul-22 19:31N 38°02' E 023°31'0 0.0
2014-Jul-22 18:31N 38°02' E 023°31'0 0.0
2014-Jul-22 17:31N 38°02' E 023°31'0 0.0
2014-Jul-22 16:19N 38°02' E 023°31'0 0.0
2014-Jul-22 15:28N 38°02' E 023°31'0 0.0
2014-Jul-22 14:31N 38°02' E 023°31'0 0.0
2014-Jul-22 13:31N 38°02' E 023°31'0 0.0
2014-Jul-22 12:28N 38°02' E 023°31'0 0.0
2014-Jul-22 11:31N 38°02' E 023°31'0 0.0
2014-Jul-22 10:28N 38°02' E 023°31'4 0.2
2014-Jul-21 14:06N 38°02' E 023°36'1 1.2
2014-Jul-21 13:33N 38°01' E 023°35'3 2.4
2014-Jul-21 12:30N 38°01' E 023°32'0 0.0
2014-Jul-21 11:33N 38°01' E 023°32'0 0.1
2014-Jul-21 10:24N 38°01' E 023°32'0 0.0
2014-Jul-21 07:33N 38°01' E 023°32'0 0.1
2014-Jul-21 06:21N 38°01' E 023°32'  

Dump ship's entire track history